createdAt,value
2017-02-08T00:00:29.743Z,1021.31
2017-02-08T00:01:40.056Z,1021.31
2017-02-08T00:02:50.225Z,1021.31
2017-02-08T00:04:00.920Z,1021.37
2017-02-08T00:05:11.231Z,1021.37
2017-02-08T00:06:21.548Z,1021.37
2017-02-08T00:07:32.270Z,1021.39
2017-02-08T00:08:42.835Z,1021.34
2017-02-08T00:09:53.164Z,1021.35
2017-02-08T00:11:03.102Z,1021.39
2017-02-08T00:12:13.822Z,1021.41
2017-02-08T00:13:24.532Z,1021.38
2017-02-08T00:14:35.134Z,1021.42
2017-02-08T00:15:45.461Z,1021.45
2017-02-08T00:16:55.787Z,1021.45
2017-02-08T00:18:06.507Z,1021.47
2017-02-08T00:19:16.818Z,1021.46
2017-02-08T00:20:27.425Z,1021.47
2017-02-08T00:21:37.726Z,1021.5
2017-02-08T00:22:47.653Z,1021.51
2017-02-08T00:23:58.567Z,1021.51
2017-02-08T00:25:08.481Z,1021.51
2017-02-08T00:26:18.276Z,1021.52
2017-02-08T00:27:28.196Z,1021.51
2017-02-08T00:28:38.503Z,1021.57
2017-02-08T00:29:48.417Z,1021.58
2017-02-08T00:30:58.139Z,1021.55
2017-02-08T00:32:08.345Z,1021.59
2017-02-08T00:33:18.659Z,1021.63
2017-02-08T00:34:29.378Z,1021.6
2017-02-08T00:35:40.081Z,1021.59
2017-02-08T00:36:50.001Z,1021.6
2017-02-08T00:38:00.559Z,1021.64
2017-02-08T00:39:11.275Z,1021.68
2017-02-08T00:40:21.985Z,1021.68
2017-02-08T00:41:32.295Z,1021.67
2017-02-08T00:42:42.235Z,1021.67
2017-02-08T00:43:52.786Z,1021.69
2017-02-08T00:45:02.705Z,1021.65
2017-02-08T00:46:13.016Z,1021.7
2017-02-08T00:47:22.926Z,1021.7
2017-02-08T00:48:33.243Z,1021.68
2017-02-08T00:49:43.399Z,1021.7
2017-02-08T00:50:54.117Z,1021.67
2017-02-08T00:52:04.440Z,1021.68
2017-02-08T00:53:14.750Z,1021.69
2017-02-08T00:54:24.685Z,1021.71
2017-02-08T00:55:34.837Z,1021.69
2017-02-08T00:56:45.147Z,1021.69
2017-02-08T00:57:55.873Z,1021.69
2017-02-08T00:59:05.397Z,1021.74
2017-02-08T01:00:15.704Z,1021.72
2017-02-08T01:01:26.648Z,1021.82
2017-02-08T01:02:36.961Z,1021.75
2017-02-08T01:03:47.269Z,1021.75
2017-02-08T01:04:57.586Z,1021.78
2017-02-08T01:06:06.716Z,1021.81
2017-02-08T01:07:16.886Z,1021.77
2017-02-08T01:08:27.595Z,1021.75
2017-02-08T01:09:37.903Z,1021.75
2017-02-08T01:10:47.816Z,1021.79
2017-02-08T01:11:58.117Z,1021.82
2017-02-08T01:13:08.325Z,1021.75
2017-02-08T01:14:19.029Z,1021.83
2017-02-08T01:15:28.952Z,1021.8
2017-02-08T01:16:39.279Z,1021.81
2017-02-08T01:17:48.789Z,1021.83
2017-02-08T01:18:59.002Z,1021.85
2017-02-08T01:20:08.510Z,1021.86
2017-02-08T01:21:18.438Z,1021.88
2017-02-08T01:22:27.579Z,1021.9
2017-02-08T01:23:37.892Z,1021.9
2017-02-08T01:24:48.445Z,1021.91
2017-02-08T01:25:58.352Z,1021.89
2017-02-08T01:27:08.254Z,1021.87
2017-02-08T01:28:18.171Z,1021.85
2017-02-08T01:29:28.478Z,1021.84
2017-02-08T01:30:39.431Z,1021.81
2017-02-08T01:31:50.148Z,1021.86
2017-02-08T01:33:00.847Z,1021.91
2017-02-08T01:34:11.159Z,1021.85
2017-02-08T01:35:20.676Z,1021.85
2017-02-08T01:36:31.626Z,1021.88
2017-02-08T01:37:41.543Z,1021.91
2017-02-08T01:38:51.844Z,1021.95
2017-02-08T01:40:01.761Z,1021.93
2017-02-08T01:41:11.687Z,1021.89
2017-02-08T01:42:21.867Z,1021.9
2017-02-08T01:43:32.601Z,1021.91
2017-02-08T01:44:42.922Z,1021.9
2017-02-08T01:45:53.237Z,1021.89
2017-02-08T01:47:03.542Z,1021.88
2017-02-08T01:48:13.312Z,1021.86
2017-02-08T01:49:24.011Z,1021.88
2017-02-08T01:50:34.323Z,1021.84
2017-02-08T01:51:44.634Z,1021.83
2017-02-08T01:52:54.586Z,1021.85
2017-02-08T01:54:05.606Z,1021.81
2017-02-08T01:55:16.314Z,1021.79
2017-02-08T01:56:25.846Z,1021.82
2017-02-08T01:57:35.761Z,1021.82
2017-02-08T01:58:45.702Z,1021.84
2017-02-08T01:59:55.874Z,1021.8
2017-02-08T02:01:06.579Z,1021.83
2017-02-08T02:02:16.101Z,1021.83
2017-02-08T02:03:26.795Z,1021.79
2017-02-08T02:04:36.700Z,1021.83
2017-02-08T02:05:47.259Z,1021.85
2017-02-08T02:06:57.180Z,1021.8
2017-02-08T02:08:07.891Z,1021.84
2017-02-08T02:09:18.200Z,1021.82
2017-02-08T02:10:28.891Z,1021.85
2017-02-08T02:11:39.499Z,1021.86
2017-02-08T02:12:49.803Z,1021.89
2017-02-08T02:14:00.121Z,1021.85
2017-02-08T02:15:10.428Z,1021.89
2017-02-08T02:16:20.732Z,1021.88
2017-02-08T02:17:31.742Z,1021.88
2017-02-08T02:18:41.659Z,1021.88
2017-02-08T02:19:51.178Z,1021.89
2017-02-08T02:21:00.693Z,1021.94
2017-02-08T02:22:10.609Z,1021.92
2017-02-08T02:23:21.176Z,1021.92
2017-02-08T02:24:31.080Z,1021.96
2017-02-08T02:25:41.371Z,1021.9
2017-02-08T02:26:52.068Z,1021.96
2017-02-08T02:28:02.766Z,1021.95
2017-02-08T02:29:13.320Z,1021.94
2017-02-08T02:30:23.221Z,1021.96
2017-02-08T02:31:33.543Z,1021.95
2017-02-08T02:32:44.263Z,1021.94
2017-02-08T02:33:54.732Z,1021.95
2017-02-08T02:35:05.685Z,1021.92
2017-02-08T02:36:16.381Z,1021.88
2017-02-08T02:37:25.899Z,1021.89
2017-02-08T02:38:35.805Z,1021.91
2017-02-08T02:39:46.117Z,1021.91
2017-02-08T02:40:56.683Z,1021.91
2017-02-08T02:42:06.990Z,1021.95
2017-02-08T02:43:17.307Z,1021.95
2017-02-08T02:44:27.618Z,1021.98
2017-02-08T02:45:38.327Z,1021.97
2017-02-08T02:46:48.493Z,1022
2017-02-08T02:47:58.413Z,1022
2017-02-08T02:49:07.946Z,1022.01
2017-02-08T02:50:18.247Z,1021.97
2017-02-08T02:51:28.554Z,1022.03
2017-02-08T02:52:38.327Z,1022.02
2017-02-08T02:53:47.853Z,1022.05
2017-02-08T02:54:58.161Z,1022
2017-02-08T02:56:08.462Z,1022.07
2017-02-08T02:57:17.984Z,1022.07
2017-02-08T02:58:27.747Z,1022.07
2017-02-08T02:59:37.674Z,1022.02
2017-02-08T03:00:47.982Z,1022.06
2017-02-08T03:01:58.287Z,1022.08
2017-02-08T03:03:08.989Z,1022.05
2017-02-08T03:04:19.950Z,1022.04
2017-02-08T03:05:30.259Z,1022.06
2017-02-08T03:06:40.948Z,1022.08
2017-02-08T03:07:51.661Z,1022.06
2017-02-08T03:09:01.968Z,1022.1
2017-02-08T03:10:12.522Z,1022.07
2017-02-08T03:11:22.831Z,1022.07
2017-02-08T03:12:33.137Z,1022.12
2017-02-08T03:13:43.452Z,1022.09
2017-02-08T03:14:54.148Z,1022.1
2017-02-08T03:16:04.711Z,1022.1
2017-02-08T03:17:15.416Z,1022.1
2017-02-08T03:18:26.118Z,1022.09
2017-02-08T03:19:35.642Z,1022.08
2017-02-08T03:20:45.950Z,1022.11
2017-02-08T03:21:56.560Z,1022.12
2017-02-08T03:23:07.263Z,1022.09
2017-02-08T03:24:16.784Z,1022.11
2017-02-08T03:25:26.698Z,1022.12
2017-02-08T03:26:37.004Z,1022.13
2017-02-08T03:27:47.158Z,1022.15
2017-02-08T03:28:57.070Z,1022.12
2017-02-08T03:30:07.676Z,1022.19
2017-02-08T03:31:18.391Z,1022.18
2017-02-08T03:32:28.299Z,1022.2
2017-02-08T03:33:39.319Z,1022.19
2017-02-08T03:34:50.016Z,1022.23
2017-02-08T03:36:00.314Z,1022.25
2017-02-08T03:37:10.622Z,1022.24
2017-02-08T03:38:21.329Z,1022.32
2017-02-08T03:39:31.491Z,1022.3
2017-02-08T03:40:41.802Z,1022.33
2017-02-08T03:41:52.110Z,1022.37
2017-02-08T03:43:02.407Z,1022.38
2017-02-08T03:44:12.750Z,1022.34
2017-02-08T03:45:23.322Z,1022.36
2017-02-08T03:46:33.222Z,1022.44
2017-02-08T03:47:43.520Z,1022.38
2017-02-08T03:48:53.434Z,1022.43
2017-02-08T03:50:04.149Z,1022.43
2017-02-08T03:51:13.917Z,1022.37
2017-02-08T03:52:24.628Z,1022.4
2017-02-08T03:53:34.141Z,1022.44
2017-02-08T03:54:44.837Z,1022.41
2017-02-08T03:55:55.536Z,1022.45
2017-02-08T03:57:06.097Z,1022.44
2017-02-08T03:58:16.007Z,1022.42
2017-02-08T03:59:26.317Z,1022.42
2017-02-08T04:00:36.229Z,1022.49
2017-02-08T04:01:46.955Z,1022.44
2017-02-08T04:02:57.914Z,1022.41
2017-02-08T04:04:08.625Z,1022.48
2017-02-08T04:05:18.932Z,1022.46
2017-02-08T04:06:28.843Z,1022.47
2017-02-08T04:07:39.551Z,1022.52
2017-02-08T04:08:50.510Z,1022.49
2017-02-08T04:10:00.424Z,1022.52
2017-02-08T04:11:10.734Z,1022.55
2017-02-08T04:12:21.430Z,1022.55
2017-02-08T04:13:31.743Z,1022.55
2017-02-08T04:14:42.351Z,1022.55
2017-02-08T04:15:53.061Z,1022.51
2017-02-08T04:17:03.763Z,1022.54
2017-02-08T04:18:14.472Z,1022.53
2017-02-08T04:19:25.177Z,1022.54
2017-02-08T04:20:35.784Z,1022.54
2017-02-08T04:21:46.098Z,1022.55
2017-02-08T04:22:56.410Z,1022.63
2017-02-08T04:24:07.106Z,1022.63
2017-02-08T04:25:17.403Z,1022.63
2017-02-08T04:26:28.344Z,1022.64
2017-02-08T04:27:38.648Z,1022.63
2017-02-08T04:28:48.955Z,1022.68
2017-02-08T04:29:59.652Z,1022.67
2017-02-08T04:31:09.960Z,1022.68
2017-02-08T04:32:20.169Z,1022.67
2017-02-08T04:33:30.867Z,1022.67
2017-02-08T04:34:41.179Z,1022.7
2017-02-08T04:35:51.096Z,1022.73
2017-02-08T04:37:01.403Z,1022.69
2017-02-08T04:38:12.351Z,1022.69
2017-02-08T04:39:22.661Z,1022.67
2017-02-08T04:40:33.375Z,1022.72
2017-02-08T04:41:43.285Z,1022.72
2017-02-08T04:42:53.589Z,1022.75
2017-02-08T04:44:04.201Z,1022.75
2017-02-08T04:45:14.117Z,1022.75
2017-02-08T04:46:24.815Z,1022.76
2017-02-08T04:47:34.334Z,1022.78
2017-02-08T04:48:44.640Z,1022.82
2017-02-08T04:49:54.431Z,1022.84
2017-02-08T04:51:05.131Z,1022.88
2017-02-08T04:52:15.045Z,1022.86
2017-02-08T04:53:25.756Z,1022.89
2017-02-08T04:54:36.116Z,1022.9
2017-02-08T04:55:47.067Z,1022.92
2017-02-08T04:56:57.375Z,1022.94
2017-02-08T04:58:07.672Z,1022.94
2017-02-08T04:59:18.361Z,1022.97
2017-02-08T05:00:29.066Z,1023
2017-02-08T05:01:40.025Z,1023
2017-02-08T05:02:50.739Z,1022.97
2017-02-08T05:04:01.442Z,1022.95
2017-02-08T05:05:12.155Z,1023.03
2017-02-08T05:06:22.860Z,1023.04
2017-02-08T05:07:33.865Z,1023.02
2017-02-08T05:08:43.779Z,1023.03
2017-02-08T05:09:54.481Z,1023.04
2017-02-08T05:11:05.233Z,1023.03
2017-02-08T05:12:15.138Z,1023.06
2017-02-08T05:13:25.699Z,1023.04
2017-02-08T05:14:36.017Z,1023.03
2017-02-08T05:15:46.333Z,1023.05
2017-02-08T05:16:56.651Z,1023.07
2017-02-08T05:18:06.959Z,1023.09
2017-02-08T05:19:17.119Z,1023.08
2017-02-08T05:20:27.042Z,1023.12
2017-02-08T05:21:36.949Z,1023.08
2017-02-08T05:22:47.266Z,1023.12
2017-02-08T05:23:57.586Z,1023.08
2017-02-08T05:25:08.527Z,1023.03
2017-02-08T05:26:18.832Z,1023.09
2017-02-08T05:27:29.147Z,1023.08
2017-02-08T05:28:39.057Z,1023.03
2017-02-08T05:29:49.785Z,1023.05
2017-02-08T05:30:59.551Z,1023.09
2017-02-08T05:32:09.875Z,1023.13
2017-02-08T05:33:20.198Z,1023.06
2017-02-08T05:34:30.117Z,1023.09
2017-02-08T05:35:40.421Z,1023.09
2017-02-08T05:36:50.976Z,1023.04
2017-02-08T05:38:01.299Z,1023.07
2017-02-08T05:39:11.613Z,1023.13
2017-02-08T05:40:22.332Z,1023.11
2017-02-08T05:41:32.639Z,1023.1
2017-02-08T05:42:43.593Z,1023.12
2017-02-08T05:43:53.909Z,1023.12
2017-02-08T05:45:04.225Z,1023.12
2017-02-08T05:46:14.940Z,1023.12
2017-02-08T05:47:25.257Z,1023.13
2017-02-08T05:48:36.204Z,1023.1
2017-02-08T05:49:46.912Z,1023.15
2017-02-08T05:50:57.231Z,1023.08
2017-02-08T05:52:07.941Z,1023.08
2017-02-08T05:53:18.248Z,1023.11
2017-02-08T05:54:28.412Z,1023.15
2017-02-08T05:55:38.330Z,1023.16
2017-02-08T05:56:49.036Z,1023.17
2017-02-08T05:57:59.776Z,1023.16
2017-02-08T05:59:10.092Z,1023.2
2017-02-08T06:00:20.657Z,1023.2
2017-02-08T06:01:31.368Z,1023.22
2017-02-08T06:02:42.073Z,1023.25
2017-02-08T06:03:52.397Z,1023.22
2017-02-08T06:05:03.118Z,1023.26
2017-02-08T06:06:13.673Z,1023.27
2017-02-08T06:07:23.971Z,1023.29
2017-02-08T06:08:34.296Z,1023.33
2017-02-08T06:09:44.602Z,1023.3
2017-02-08T06:10:54.905Z,1023.29
2017-02-08T06:12:05.856Z,1023.34
2017-02-08T06:13:16.570Z,1023.33
2017-02-08T06:14:26.893Z,1023.35
2017-02-08T06:15:37.591Z,1023.38
2017-02-08T06:16:47.539Z,1023.43
2017-02-08T06:17:58.484Z,1023.42
2017-02-08T06:19:08.409Z,1023.4
2017-02-08T06:20:18.717Z,1023.42
2017-02-08T06:21:29.290Z,1023.44
2017-02-08T06:22:39.597Z,1023.44
2017-02-08T06:23:50.551Z,1023.45
2017-02-08T06:25:01.415Z,1023.48
2017-02-08T06:26:12.123Z,1023.52
2017-02-08T06:27:22.839Z,1023.53
2017-02-08T06:28:33.546Z,1023.61
2017-02-08T06:29:44.106Z,1023.63
2017-02-08T06:30:55.692Z,1023.64
2017-02-08T06:32:06.414Z,1023.67
2017-02-08T06:33:16.737Z,1023.67
2017-02-08T06:34:27.473Z,1023.73
2017-02-08T06:35:38.442Z,1023.76
2017-02-08T06:36:49.143Z,1023.75
2017-02-08T06:37:59.132Z,1023.71
2017-02-08T06:39:08.657Z,1023.75
2017-02-08T06:40:19.380Z,1023.75
2017-02-08T06:41:30.349Z,1023.75
2017-02-08T06:42:41.049Z,1023.77
2017-02-08T06:43:51.747Z,1023.77
2017-02-08T06:45:02.471Z,1023.75
2017-02-08T06:46:13.207Z,1023.82
2017-02-08T06:47:24.191Z,1023.81
2017-02-08T06:48:34.896Z,1023.8
2017-02-08T06:49:45.608Z,1023.86
2017-02-08T06:50:55.915Z,1023.83
2017-02-08T06:52:05.445Z,1023.85
2017-02-08T06:53:16.419Z,1023.81
2017-02-08T06:54:26.733Z,1023.8
2017-02-08T06:55:37.469Z,1023.8
2017-02-08T06:56:47.393Z,1023.79
2017-02-08T06:57:57.706Z,1023.73
2017-02-08T06:59:08.656Z,1023.83
2017-02-08T07:00:19.364Z,1023.8
2017-02-08T07:01:30.080Z,1023.82
2017-02-08T07:02:40.407Z,1023.83
2017-02-08T07:03:50.711Z,1023.84
2017-02-08T07:05:01.281Z,1023.86
2017-02-08T07:06:11.597Z,1023.81
2017-02-08T07:07:22.325Z,1023.83
2017-02-08T07:08:32.656Z,1023.86
2017-02-08T07:09:43.361Z,1023.83
2017-02-08T07:10:53.936Z,1023.86
2017-02-08T07:12:04.244Z,1023.83
2017-02-08T07:13:14.964Z,1023.86
2017-02-08T07:14:25.280Z,1023.86
2017-02-08T07:15:35.610Z,1023.91
2017-02-08T07:16:45.789Z,1023.89
2017-02-08T07:17:56.589Z,1023.91
2017-02-08T07:19:07.302Z,1023.93
2017-02-08T07:20:17.626Z,1023.86
2017-02-08T07:21:28.383Z,1023.91
2017-02-08T07:22:38.943Z,1023.95
2017-02-08T07:23:49.672Z,1023.93
2017-02-08T07:25:00.007Z,1024.02
2017-02-08T07:26:10.724Z,1023.97
2017-02-08T07:27:21.065Z,1024
2017-02-08T07:28:31.633Z,1024.05
2017-02-08T07:29:41.554Z,1024.01
2017-02-08T07:30:51.863Z,1024.03
2017-02-08T07:32:02.575Z,1024.06
2017-02-08T07:33:13.288Z,1024.08
2017-02-08T07:34:23.889Z,1024.1
2017-02-08T07:35:34.608Z,1024.12
2017-02-08T07:36:45.081Z,1024.11
2017-02-08T07:37:55.804Z,1024.13
2017-02-08T07:39:06.166Z,1024.11
2017-02-08T07:40:17.141Z,1024.13
2017-02-08T07:41:27.458Z,1024.15
2017-02-08T07:42:38.217Z,1024.16
2017-02-08T07:43:48.148Z,1024.19
2017-02-08T07:44:58.854Z,1024.18
2017-02-08T07:46:09.186Z,1024.16
2017-02-08T07:47:19.905Z,1024.16
2017-02-08T07:48:30.635Z,1024.17
2017-02-08T07:49:41.403Z,1024.22
2017-02-08T07:50:51.322Z,1024.18
2017-02-08T07:52:02.286Z,1024.23
2017-02-08T07:53:12.257Z,1024.23
2017-02-08T07:54:22.177Z,1024.24
2017-02-08T07:55:32.510Z,1024.21
2017-02-08T07:56:43.228Z,1024.25
2017-02-08T07:57:54.197Z,1024.26
2017-02-08T07:59:04.503Z,1024.25
2017-02-08T08:00:15.234Z,1024.24
2017-02-08T08:01:26.059Z,1024.23
2017-02-08T08:02:36.806Z,1024.29
2017-02-08T08:03:47.386Z,1024.29
2017-02-08T08:04:57.718Z,1024.32
2017-02-08T08:06:08.059Z,1024.25
2017-02-08T08:07:18.417Z,1024.25
2017-02-08T08:08:28.735Z,1024.25
2017-02-08T08:09:39.355Z,1024.24
2017-02-08T08:10:49.684Z,1024.28
2017-02-08T08:12:00.021Z,1024.28
2017-02-08T08:13:09.971Z,1024.3
2017-02-08T08:14:19.888Z,1024.32
2017-02-08T08:15:30.864Z,1024.33
2017-02-08T08:16:41.600Z,1024.35
2017-02-08T08:17:52.567Z,1024.38
2017-02-08T08:19:03.290Z,1024.45
2017-02-08T08:20:13.612Z,1024.42
2017-02-08T08:21:24.240Z,1024.43
2017-02-08T08:22:34.555Z,1024.39
2017-02-08T08:23:45.282Z,1024.44
2017-02-08T08:24:56.005Z,1024.42
2017-02-08T08:26:06.716Z,1024.53
2017-02-08T08:27:17.288Z,1024.45
2017-02-08T08:28:28.004Z,1024.5
2017-02-08T08:29:37.930Z,1024.5
2017-02-08T08:30:48.649Z,1024.57
2017-02-08T08:31:58.575Z,1024.57
2017-02-08T08:33:09.595Z,1024.57
2017-02-08T08:34:19.904Z,1024.58
2017-02-08T08:35:30.615Z,1024.6
2017-02-08T08:36:40.924Z,1024.57
2017-02-08T08:37:51.240Z,1024.57
2017-02-08T08:39:02.258Z,1024.58
2017-02-08T08:40:12.572Z,1024.55
2017-02-08T08:41:22.504Z,1024.57
2017-02-08T08:42:32.421Z,1024.67
2017-02-08T08:43:42.748Z,1024.55
2017-02-08T08:44:54.066Z,1024.54
2017-02-08T08:46:04.807Z,1024.52
2017-02-08T08:47:15.186Z,1024.56
2017-02-08T08:48:25.564Z,1024.51
2017-02-08T08:49:36.325Z,1024.54
2017-02-08T08:50:47.308Z,1024.55
2017-02-08T08:51:56.844Z,1024.53
2017-02-08T08:53:06.819Z,1024.54
2017-02-08T08:54:17.569Z,1024.54
2017-02-08T08:55:28.128Z,1024.57
2017-02-08T08:56:39.371Z,1024.51
2017-02-08T08:57:50.170Z,1024.57
2017-02-08T08:59:00.118Z,1024.53
2017-02-08T09:00:10.866Z,1024.53
2017-02-08T09:01:21.609Z,1024.56
2017-02-08T09:02:32.642Z,1024.57
2017-02-08T09:03:43.408Z,1024.54
2017-02-08T09:04:54.136Z,1024.57
2017-02-08T09:06:04.482Z,1024.53
2017-02-08T09:07:15.207Z,1024.53
2017-02-08T09:08:25.793Z,1024.54
2017-02-08T09:09:36.524Z,1024.55
2017-02-08T09:10:47.294Z,1024.58
2017-02-08T09:11:57.942Z,1024.53
2017-02-08T09:13:08.944Z,1024.56
2017-02-08T09:14:20.473Z,1024.56
2017-02-08T09:15:31.231Z,1024.54
2017-02-08T09:16:42.001Z,1024.58
2017-02-08T09:17:51.555Z,1024.56
2017-02-08T09:19:02.175Z,1024.53
2017-02-08T09:20:13.016Z,1024.61
2017-02-08T09:21:23.376Z,1024.58
2017-02-08T09:22:34.102Z,1024.6
2017-02-08T09:23:44.461Z,1024.57
2017-02-08T09:24:55.169Z,1024.55
2017-02-08T09:26:05.820Z,1024.58
2017-02-08T09:27:16.540Z,1024.6
2017-02-08T09:28:27.280Z,1024.62
2017-02-08T09:29:38.187Z,1024.6
2017-02-08T09:30:48.538Z,1024.61
2017-02-08T09:31:59.491Z,1024.56
2017-02-08T09:33:10.213Z,1024.61
2017-02-08T09:34:20.570Z,1024.59
2017-02-08T09:35:30.497Z,1024.64
2017-02-08T09:36:41.214Z,1024.64
2017-02-08T09:37:51.409Z,1024.65
2017-02-08T09:39:02.174Z,1024.62
2017-02-08T09:40:12.909Z,1024.67
2017-02-08T09:41:23.637Z,1024.66
2017-02-08T09:42:33.960Z,1024.67
2017-02-08T09:43:44.585Z,1024.71
2017-02-08T09:44:55.660Z,1024.73
2017-02-08T09:46:06.403Z,1024.76
2017-02-08T09:47:16.766Z,1024.8
2017-02-08T09:48:27.089Z,1024.8
2017-02-08T09:49:38.101Z,1024.82
2017-02-08T09:50:48.839Z,1024.81
2017-02-08T09:51:59.164Z,1024.83
2017-02-08T09:53:09.922Z,1024.85
2017-02-08T09:54:20.267Z,1024.87
2017-02-08T09:55:31.325Z,1024.88
2017-02-08T09:56:41.244Z,1024.89
2017-02-08T09:57:51.185Z,1024.87
2017-02-08T09:59:01.926Z,1024.88
2017-02-08T10:00:12.292Z,1024.87
2017-02-08T10:01:22.921Z,1024.89
2017-02-08T10:02:33.758Z,1024.89
2017-02-08T10:03:44.079Z,1024.9
2017-02-08T10:04:54.012Z,1024.93
2017-02-08T10:06:04.757Z,1024.96
2017-02-08T10:07:15.112Z,1024.97
2017-02-08T10:08:25.849Z,1024.94
2017-02-08T10:09:36.632Z,1024.95
2017-02-08T10:10:47.397Z,1024.92
2017-02-08T10:11:57.597Z,1024.93
2017-02-08T10:13:08.300Z,1024.94
2017-02-08T10:14:19.032Z,1025
2017-02-08T10:15:29.408Z,1025.05
2017-02-08T10:16:39.730Z,1025.09
2017-02-08T10:17:50.702Z,1025.02
2017-02-08T10:19:01.431Z,1025.11
2017-02-08T10:20:11.769Z,1025.09
2017-02-08T10:21:22.520Z,1025.08
2017-02-08T10:22:32.833Z,1025.15
2017-02-08T10:23:43.401Z,1025.12
2017-02-08T10:24:53.734Z,1025.07
2017-02-08T10:26:04.460Z,1025.1
2017-02-08T10:27:15.173Z,1025.12
2017-02-08T10:28:25.909Z,1025.11
2017-02-08T10:29:36.473Z,1025.09
2017-02-08T10:30:46.813Z,1025.12
2017-02-08T10:31:57.545Z,1025.13
2017-02-08T10:33:08.253Z,1025.13
2017-02-08T10:34:18.963Z,1025.12
2017-02-08T10:35:29.588Z,1025.1
2017-02-08T10:36:40.297Z,1025.13
2017-02-08T10:37:50.211Z,1025.11
2017-02-08T10:39:00.925Z,1025.12
2017-02-08T10:40:10.852Z,1025.15
2017-02-08T10:41:21.830Z,1025.14
2017-02-08T10:42:32.151Z,1025.13
2017-02-08T10:43:42.474Z,1025.15
2017-02-08T10:44:52.390Z,1025.14
2017-02-08T10:46:03.108Z,1025.15
2017-02-08T10:47:14.064Z,1025.14
2017-02-08T10:48:23.985Z,1025.18
2017-02-08T10:49:34.710Z,1025.16
2017-02-08T10:50:45.437Z,1025.2
2017-02-08T10:51:56.147Z,1025.19
2017-02-08T10:53:06.701Z,1025.18
2017-02-08T10:54:17.405Z,1025.16
2017-02-08T10:55:28.127Z,1025.14
2017-02-08T10:56:38.049Z,1025.16
2017-02-08T10:57:48.748Z,1025.16
2017-02-08T10:58:58.974Z,1025.17
2017-02-08T11:00:09.774Z,1025.12
2017-02-08T11:01:20.513Z,1025.11
2017-02-08T11:02:31.263Z,1025.07
2017-02-08T11:03:41.584Z,1025.11
2017-02-08T11:04:52.192Z,1025.1
2017-02-08T11:06:02.933Z,1025.05
2017-02-08T11:07:13.264Z,1025.04
2017-02-08T11:08:24.027Z,1025.06
2017-02-08T11:09:34.743Z,1025.02
2017-02-08T11:10:45.358Z,1025.04
2017-02-08T11:11:55.280Z,1025.03
2017-02-08T11:13:05.596Z,1025.05
2017-02-08T11:14:15.908Z,1025.02
2017-02-08T11:15:26.213Z,1025
2017-02-08T11:16:36.792Z,1025.02
2017-02-08T11:17:46.726Z,1025.04
2017-02-08T11:18:56.651Z,1025
2017-02-08T11:20:06.954Z,1025.01
2017-02-08T11:21:17.671Z,1025.01
2017-02-08T11:22:28.635Z,1025.04
2017-02-08T11:23:38.554Z,1025
2017-02-08T11:24:48.876Z,1025.04
2017-02-08T11:25:58.404Z,1025.05
2017-02-08T11:27:08.721Z,1025.01
2017-02-08T11:28:19.682Z,1025
2017-02-08T11:29:30.628Z,1025
2017-02-08T11:30:41.348Z,1025
2017-02-08T11:31:51.684Z,1025.02
2017-02-08T11:33:02.407Z,1025.1
2017-02-08T11:34:13.374Z,1025.07
2017-02-08T11:35:23.710Z,1025.09
2017-02-08T11:36:34.047Z,1025.07
2017-02-08T11:37:44.356Z,1025.07
2017-02-08T11:38:54.701Z,1025.13
2017-02-08T11:40:05.470Z,1025.1
2017-02-08T11:41:16.123Z,1025.1
2017-02-08T11:42:27.303Z,1025.08
2017-02-08T11:43:37.626Z,1025.1
2017-02-08T11:44:48.388Z,1025.08
2017-02-08T11:45:58.570Z,1025.11
2017-02-08T11:47:09.312Z,1025.04
2017-02-08T11:48:20.077Z,1025.06
2017-02-08T11:49:30.786Z,1025.05
2017-02-08T11:50:41.517Z,1025.04
2017-02-08T11:51:52.478Z,1025.05
2017-02-08T11:53:03.203Z,1025.09
2017-02-08T11:54:13.913Z,1025.09
2017-02-08T11:55:24.639Z,1025.04
2017-02-08T11:56:35.357Z,1025.07
2017-02-08T11:57:45.933Z,1025.06
2017-02-08T11:58:56.683Z,1025.04
2017-02-08T12:00:07.430Z,1025.03
2017-02-08T12:01:18.138Z,1025.07
2017-02-08T12:02:28.875Z,1025.07
2017-02-08T12:03:39.477Z,1025.13
2017-02-08T12:04:50.215Z,1025.04
2017-02-08T12:06:00.535Z,1025.04
2017-02-08T12:07:10.455Z,1025.01
2017-02-08T12:08:20.782Z,1025.01
2017-02-08T12:09:31.361Z,1025.04
2017-02-08T12:10:42.095Z,1025.04
2017-02-08T12:11:52.825Z,1025
2017-02-08T12:13:03.149Z,1025.02
2017-02-08T12:14:13.878Z,1025.06
2017-02-08T12:15:24.461Z,1025.08
2017-02-08T12:16:34.801Z,1025.08
2017-02-08T12:17:45.520Z,1025.17
2017-02-08T12:18:54.650Z,1025.2
2017-02-08T12:20:04.589Z,1025.12
2017-02-08T12:21:15.632Z,1025.11
2017-02-08T12:22:25.941Z,1025.11
2017-02-08T12:23:36.295Z,1025.13
2017-02-08T12:24:47.040Z,1025.09
2017-02-08T12:25:57.767Z,1025.09
2017-02-08T12:27:08.343Z,1025.07
2017-02-08T12:28:19.069Z,1025.09
2017-02-08T12:29:29.824Z,1025.08
2017-02-08T12:30:40.561Z,1025.06
2017-02-08T12:31:51.293Z,1025.1
2017-02-08T12:33:02.285Z,1025.09
2017-02-08T12:34:13.050Z,1025.11
2017-02-08T12:35:23.379Z,1025.07
2017-02-08T12:36:33.690Z,1025.01
2017-02-08T12:37:44.046Z,1025.05
2017-02-08T12:38:55.085Z,1025.06
2017-02-08T12:40:05.817Z,1025.05
2017-02-08T12:41:15.734Z,1025.06
2017-02-08T12:42:25.667Z,1025.01
2017-02-08T12:43:36.378Z,1025.08
2017-02-08T12:44:47.421Z,1025.05
2017-02-08T12:45:58.141Z,1025.06
2017-02-08T12:47:08.462Z,1025.06
2017-02-08T12:48:19.187Z,1025.05
2017-02-08T12:49:29.901Z,1025.05
2017-02-08T12:50:40.877Z,1025.05
2017-02-08T12:51:51.218Z,1025.03
2017-02-08T12:53:01.936Z,1025.02
2017-02-08T12:54:12.257Z,1025.05
2017-02-08T12:55:22.583Z,1025.03
2017-02-08T12:56:33.168Z,1025.04
2017-02-08T12:57:43.480Z,1025.04
2017-02-08T12:58:53.799Z,1025.05
2017-02-08T13:00:04.522Z,1025.03
2017-02-08T13:01:15.267Z,1025.06
2017-02-08T13:02:25.794Z,1025.07
2017-02-08T13:03:36.509Z,1025.12
2017-02-08T13:04:47.222Z,1025.14
2017-02-08T13:05:57.545Z,1025.13
2017-02-08T13:07:08.262Z,1025.13
2017-02-08T13:08:18.839Z,1025.13
2017-02-08T13:09:29.561Z,1025.1
2017-02-08T13:10:40.269Z,1025.16
2017-02-08T13:11:50.608Z,1025.19
2017-02-08T13:13:01.331Z,1025.17
2017-02-08T13:14:11.911Z,1025.25
2017-02-08T13:15:22.230Z,1025.19
2017-02-08T13:16:32.953Z,1025.2
2017-02-08T13:17:43.660Z,1025.23
2017-02-08T13:18:54.371Z,1025.26
2017-02-08T13:20:05.347Z,1025.19
2017-02-08T13:21:16.067Z,1025.2
2017-02-08T13:22:26.400Z,1025.17
2017-02-08T13:23:37.116Z,1025.18
2017-02-08T13:24:47.442Z,1025.15
2017-02-08T13:25:58.416Z,1025.16
2017-02-08T13:27:09.150Z,1025.19
2017-02-08T13:28:19.869Z,1025.19
2017-02-08T13:29:29.789Z,1025.17
2017-02-08T13:30:40.110Z,1025.21
2017-02-08T13:31:51.120Z,1025.22
2017-02-08T13:33:01.031Z,1025.23
2017-02-08T13:34:10.950Z,1025.24
2017-02-08T13:35:21.268Z,1025.21
2017-02-08T13:36:31.182Z,1025.24
2017-02-08T13:37:41.757Z,1025.24
2017-02-08T13:38:51.693Z,1025.22
2017-02-08T13:40:02.409Z,1025.2
2017-02-08T13:41:13.148Z,1025.21
2017-02-08T13:42:23.485Z,1025.18
2017-02-08T13:43:34.650Z,1025.23
2017-02-08T13:44:45.395Z,1025.26
2017-02-08T13:45:56.138Z,1025.28
2017-02-08T13:47:06.880Z,1025.32
2017-02-08T13:48:17.667Z,1025.32
2017-02-08T13:49:28.666Z,1025.28
2017-02-08T13:50:39.394Z,1025.31
2017-02-08T13:51:50.118Z,1025.31
2017-02-08T13:53:00.838Z,1025.35
2017-02-08T13:54:11.548Z,1025.34
2017-02-08T13:55:21.888Z,1025.3
2017-02-08T13:56:32.625Z,1025.32
2017-02-08T13:57:43.356Z,1025.32
2017-02-08T13:58:54.084Z,1025.3
2017-02-08T14:00:04.686Z,1025.29
2017-02-08T14:01:15.401Z,1025.29
2017-02-08T14:02:25.712Z,1025.29
2017-02-08T14:03:36.439Z,1025.36
2017-02-08T14:04:47.168Z,1025.3
2017-02-08T14:05:58.152Z,1025.33
2017-02-08T14:07:08.885Z,1025.36
2017-02-08T14:08:19.622Z,1025.32
2017-02-08T14:09:29.948Z,1025.29
2017-02-08T14:10:40.754Z,1025.29
2017-02-08T14:11:51.773Z,1025.28
2017-02-08T14:13:02.493Z,1025.33
2017-02-08T14:14:12.858Z,1025.29
2017-02-08T14:15:23.591Z,1025.33